createdAt,value
2022-11-02T00:01:15.648Z,16.34
2022-11-02T00:03:44.175Z,16.25
2022-11-02T00:06:13.556Z,16.31
2022-11-02T00:08:41.516Z,16.35
2022-11-02T00:11:09.611Z,16.23
2022-11-02T00:13:40.635Z,16.34
2022-11-02T00:16:09.933Z,16.49
2022-11-02T00:18:37.892Z,16.53
2022-11-02T00:21:06.138Z,16.53
2022-11-02T00:23:35.417Z,16.50
2022-11-02T00:26:03.383Z,16.35
2022-11-02T00:28:31.346Z,16.61
2022-11-02T00:30:59.322Z,16.57
2022-11-02T00:33:27.410Z,16.60
2022-11-02T00:35:55.416Z,16.60
2022-11-02T00:38:23.446Z,16.56
2022-11-02T00:40:54.881Z,16.59
2022-11-02T00:43:22.861Z,16.54
2022-11-02T00:45:50.840Z,16.47
2022-11-02T00:48:18.937Z,16.64
2022-11-02T00:50:46.893Z,16.61
2022-11-02T00:53:14.970Z,16.58
2022-11-02T00:55:51.412Z,16.59
2022-11-02T00:58:20.808Z,16.64
2022-11-02T01:00:50.491Z,16.58
2022-11-02T01:03:18.417Z,16.45
2022-11-02T01:05:46.562Z,16.53
2022-11-02T01:08:15.445Z,16.63
2022-11-02T01:10:47.172Z,16.50
2022-11-02T01:13:17.634Z,16.49
2022-11-02T01:15:47.108Z,16.62
2022-11-02T01:18:15.049Z,16.53
2022-11-02T01:20:43.588Z,16.78
2022-11-02T01:23:11.815Z,16.80
2022-11-02T01:25:48.431Z,16.72
2022-11-02T01:28:16.392Z,16.81
2022-11-02T01:30:46.602Z,16.78
2022-11-02T01:33:15.997Z,16.73
2022-11-02T01:35:44.040Z,16.67
2022-11-02T01:38:12.046Z,16.71
2022-11-02T01:40:40.201Z,16.63
2022-11-02T01:43:29.667Z,16.55
2022-11-02T01:45:59.881Z,16.43
2022-11-02T01:48:31.127Z,16.27
2022-11-02T01:50:59.254Z,16.24
2022-11-02T01:53:27.328Z,16.17
2022-11-02T01:55:58.045Z,16.05
2022-11-02T01:58:25.974Z,16.04
2022-11-02T02:00:54.129Z,16.00
2022-11-02T02:03:22.127Z,15.93
2022-11-02T02:06:06.454Z,16.00
2022-11-02T02:08:34.582Z,15.98
2022-11-02T02:11:04.651Z,15.97
2022-11-02T02:13:32.781Z,15.88
2022-11-02T02:16:06.762Z,15.85
2022-11-02T02:18:38.231Z,15.75
2022-11-02T02:21:30.160Z,15.67
2022-11-02T02:24:14.543Z,15.52
2022-11-02T02:26:55.668Z,15.43
2022-11-02T02:29:25.353Z,15.33
2022-11-02T02:31:56.363Z,15.40
2022-11-02T02:34:25.857Z,15.40
2022-11-02T02:36:56.891Z,15.40
2022-11-02T02:39:27.724Z,15.42
2022-11-02T02:41:58.676Z,15.39
2022-11-02T02:44:30.028Z,15.33
2022-11-02T02:46:59.147Z,15.44
2022-11-02T02:49:28.746Z,15.41
2022-11-02T02:51:57.114Z,15.42
2022-11-02T02:54:29.430Z,15.42
2022-11-02T02:56:58.819Z,15.41
2022-11-02T02:59:38.540Z,15.36
2022-11-02T03:02:07.182Z,15.27
2022-11-02T03:04:35.288Z,15.17
2022-11-02T03:07:03.238Z,15.04
2022-11-02T03:09:35.980Z,14.90
2022-11-02T03:12:12.619Z,14.84
2022-11-02T03:14:46.590Z,14.76
2022-11-02T03:17:22.134Z,14.74
2022-11-02T03:19:56.367Z,14.85
2022-11-02T03:22:29.420Z,14.86
2022-11-02T03:25:01.410Z,14.88
2022-11-02T03:27:36.199Z,14.92
2022-11-02T03:30:09.558Z,14.93
2022-11-02T03:32:39.704Z,14.93
2022-11-02T03:35:12.698Z,14.94
2022-11-02T03:37:41.597Z,15.01
2022-11-02T03:40:15.085Z,15.04
2022-11-02T03:42:47.094Z,15.11
2022-11-02T03:45:18.024Z,15.09
2022-11-02T03:47:48.104Z,14.99
2022-11-02T03:50:18.278Z,14.87
2022-11-02T03:52:46.995Z,14.79
2022-11-02T03:55:17.215Z,14.63
2022-11-02T03:57:46.774Z,14.68
2022-11-02T04:00:19.919Z,14.63
2022-11-02T04:02:57.518Z,14.67
2022-11-02T04:05:31.329Z,14.62
2022-11-02T04:08:19.129Z,14.61
2022-11-02T04:11:04.957Z,14.58
2022-11-02T04:13:50.508Z,14.54
2022-11-02T04:16:26.696Z,14.50
2022-11-02T04:19:14.612Z,14.48
2022-11-02T04:22:06.115Z,14.44
2022-11-02T04:24:54.424Z,14.66
2022-11-02T04:27:22.433Z,14.68
2022-11-02T04:29:52.361Z,14.63
2022-11-02T04:32:36.302Z,14.71
2022-11-02T04:35:06.681Z,14.62
2022-11-02T04:37:56.752Z,14.62
2022-11-02T04:40:26.977Z,14.55
2022-11-02T04:42:55.870Z,14.43
2022-11-02T04:45:25.388Z,14.33
2022-11-02T04:48:01.136Z,14.37
2022-11-02T04:50:29.578Z,14.38
2022-11-02T04:52:58.681Z,14.39
2022-11-02T04:55:27.774Z,14.23
2022-11-02T04:57:56.557Z,14.36
2022-11-02T05:00:25.623Z,14.34
2022-11-02T05:02:56.101Z,14.34
2022-11-02T05:05:26.237Z,14.31
2022-11-02T05:07:57.430Z,14.24
2022-11-02T05:10:25.515Z,14.15
2022-11-02T05:12:58.491Z,14.00
2022-11-02T05:15:30.122Z,14.08
2022-11-02T05:18:01.918Z,13.84
2022-11-02T05:20:31.568Z,13.96
2022-11-02T05:22:59.851Z,14.01
2022-11-02T05:25:28.285Z,14.00
2022-11-02T05:27:57.603Z,13.87
2022-11-02T05:30:25.911Z,13.96
2022-11-02T05:32:57.604Z,13.91
2022-11-02T05:35:27.231Z,13.89
2022-11-02T05:37:56.270Z,13.97
2022-11-02T05:40:24.551Z,13.99
2022-11-02T05:43:02.791Z,14.00
2022-11-02T05:45:32.187Z,13.97
2022-11-02T05:48:01.244Z,13.91
2022-11-02T05:50:33.504Z,14.01
2022-11-02T05:53:04.131Z,14.02
2022-11-02T05:55:32.394Z,14.00
2022-11-02T05:58:00.425Z,14.01
2022-11-02T06:00:28.359Z,13.97
2022-11-02T06:02:59.434Z,14.03
2022-11-02T06:05:27.669Z,14.04
2022-11-02T06:08:00.692Z,14.06
2022-11-02T06:10:28.826Z,14.07
2022-11-02T06:12:57.945Z,13.95
2022-11-02T06:15:25.905Z,14.00
2022-11-02T06:17:53.972Z,14.04
2022-11-02T06:20:21.967Z,14.04
2022-11-02T06:22:53.479Z,14.03
2022-11-02T06:25:23.092Z,14.03
2022-11-02T06:27:56.203Z,13.99
2022-11-02T06:30:27.997Z,13.94
2022-11-02T06:32:56.166Z,13.79
2022-11-02T06:35:26.719Z,14.01
2022-11-02T06:37:54.827Z,13.92
2022-11-02T06:40:26.561Z,13.98
2022-11-02T06:43:15.290Z,13.96
2022-11-02T06:45:44.267Z,14.01
2022-11-02T06:48:12.166Z,14.00
2022-11-02T06:50:40.104Z,14.03
2022-11-02T06:54:02.219Z,14.07
2022-11-02T06:56:35.482Z,14.04
2022-11-02T06:59:03.577Z,14.09
2022-11-02T07:01:33.125Z,14.14
2022-11-02T07:04:01.140Z,14.18
2022-11-02T07:06:29.163Z,14.17
2022-11-02T07:08:57.125Z,14.18
2022-11-02T07:11:25.221Z,14.23
2022-11-02T07:13:54.816Z,14.25
2022-11-02T07:16:22.951Z,14.29
2022-11-02T07:18:52.591Z,14.19
2022-11-02T07:23:53.711Z,14.37
2022-11-02T07:26:24.311Z,14.40
2022-11-02T07:28:58.245Z,14.42
2022-11-02T07:31:28.519Z,14.45
2022-11-02T07:33:58.909Z,14.39
2022-11-02T07:36:27.049Z,14.54
2022-11-02T07:38:57.761Z,14.54
2022-11-02T07:41:25.869Z,14.56
2022-11-02T07:43:54.002Z,14.65
2022-11-02T07:46:35.989Z,14.68
2022-11-02T07:49:11.806Z,14.70
2022-11-02T07:51:39.902Z,14.77
2022-11-02T07:54:09.648Z,14.85
2022-11-02T07:56:39.329Z,14.85
2022-11-02T07:59:07.918Z,14.97
2022-11-02T08:01:40.282Z,15.06
2022-11-02T08:04:08.808Z,15.06
2022-11-02T08:06:37.377Z,15.03
2022-11-02T08:09:05.406Z,15.18
2022-11-02T08:11:45.709Z,15.19
2022-11-02T08:14:13.857Z,15.23
2022-11-02T08:16:44.354Z,15.27
2022-11-02T08:19:12.336Z,15.24
2022-11-02T08:21:40.255Z,15.33
2022-11-02T08:24:10.888Z,15.40
2022-11-02T08:26:41.092Z,15.46
2022-11-02T08:29:12.235Z,15.52
2022-11-02T08:31:57.990Z,15.57
2022-11-02T08:35:50.767Z,15.55
2022-11-02T08:39:19.051Z,15.61
2022-11-02T08:46:16.591Z,15.86
2022-11-02T08:49:28.777Z,16.01
2022-11-02T08:52:45.513Z,15.97
2022-11-02T08:59:02.676Z,16.13
2022-11-02T09:02:13.636Z,16.31
2022-11-02T09:04:56.172Z,16.22
2022-11-02T09:07:28.826Z,16.36
2022-11-02T09:13:12.749Z,16.58
2022-11-02T09:16:48.413Z,16.65
2022-11-02T09:19:01.591Z,16.58
2022-11-02T09:21:40.798Z,16.59
2022-11-02T09:24:28.627Z,16.49
2022-11-02T09:27:00.818Z,16.74
2022-11-02T09:29:28.998Z,16.84
2022-11-02T09:31:56.945Z,16.93
2022-11-02T09:34:26.490Z,16.93
2022-11-02T09:36:54.481Z,17.02
2022-11-02T09:39:24.887Z,17.10
2022-11-02T09:42:00.381Z,17.25
2022-11-02T09:44:40.161Z,17.39
2022-11-02T09:47:55.685Z,17.37
2022-11-02T09:50:00.278Z,17.43
2022-11-02T09:52:30.396Z,17.48
2022-11-02T09:54:58.477Z,17.61
2022-11-02T09:57:31.463Z,17.70
2022-11-02T10:00:01.099Z,17.70
2022-11-02T10:02:39.678Z,17.73
2022-11-02T10:05:27.244Z,17.77
2022-11-02T10:08:08.267Z,17.83
2022-11-02T10:10:41.271Z,17.74
2022-11-02T10:13:16.444Z,17.70
2022-11-02T10:15:48.072Z,17.83
2022-11-02T10:18:19.307Z,17.88
2022-11-02T10:21:09.213Z,17.87
2022-11-02T10:24:00.372Z,17.96
2022-11-02T10:27:14.454Z,17.99
2022-11-02T10:34:12.996Z,17.73
2022-11-02T10:40:12.661Z,17.96
2022-11-02T10:43:17.959Z,18.07
2022-11-02T10:46:55.686Z,18.20
2022-11-02T10:55:32.816Z,18.13
2022-11-02T11:01:52.641Z,18.46
2022-11-02T11:41:34.321Z,18.51
2022-11-02T12:05:27.980Z,18.96
2022-11-02T12:17:30.671Z,19.29
2022-11-02T12:29:12.794Z,19.21
2022-11-02T12:44:28.718Z,18.98
2022-11-02T12:47:27.873Z,19.14
2022-11-02T12:50:46.984Z,19.22
2022-11-02T13:06:19.046Z,18.89
2022-11-02T13:08:54.735Z,19.00
2022-11-02T13:18:58.118Z,18.94
2022-11-02T13:25:32.740Z,18.93
2022-11-02T13:28:16.723Z,18.58
2022-11-02T13:30:47.885Z,18.44
2022-11-02T13:33:17.901Z,18.30
2022-11-02T13:35:46.924Z,18.16
2022-11-02T13:38:21.212Z,18.15
2022-11-02T13:40:51.441Z,18.10
2022-11-02T13:43:41.704Z,18.19
2022-11-02T13:46:25.567Z,18.18
2022-11-02T13:48:57.686Z,18.20
2022-11-02T13:51:31.645Z,18.26
2022-11-02T13:54:02.143Z,18.41
2022-11-02T13:56:31.572Z,18.41
2022-11-02T13:59:02.122Z,18.41
2022-11-02T14:01:31.791Z,18.31
2022-11-02T14:04:02.759Z,18.18
2022-11-02T14:06:31.414Z,18.07
2022-11-02T14:09:00.448Z,18.12
2022-11-02T14:11:46.173Z,17.92
2022-11-02T14:14:32.707Z,17.85
2022-11-02T14:17:12.157Z,17.89
2022-11-02T14:19:56.898Z,17.81
2022-11-02T14:22:25.323Z,17.91
2022-11-02T14:25:11.067Z,17.86
2022-11-02T14:27:40.612Z,17.70
2022-11-02T14:30:44.063Z,17.85
2022-11-02T14:33:32.906Z,17.89
2022-11-02T14:36:01.676Z,17.94
2022-11-02T14:38:49.781Z,17.83
2022-11-02T14:41:35.750Z,17.94
2022-11-02T14:44:39.085Z,17.97
2022-11-02T14:47:09.059Z,17.94
2022-11-02T14:49:38.984Z,17.93
2022-11-02T14:52:08.726Z,17.83
2022-11-02T14:54:40.011Z,17.64
2022-11-02T14:57:18.274Z,17.84
2022-11-02T14:59:48.674Z,17.66
2022-11-02T15:02:21.425Z,17.69
2022-11-02T15:04:50.691Z,17.62
2022-11-02T15:07:20.065Z,17.52
2022-11-02T15:09:56.021Z,17.48
2022-11-02T15:12:35.420Z,17.35
2022-11-02T15:15:39.513Z,17.49
2022-11-02T15:18:32.762Z,17.60
2022-11-02T15:21:26.686Z,17.66
2022-11-02T15:24:23.583Z,17.68
2022-11-02T15:26:55.272Z,17.71
2022-11-02T15:29:42.280Z,17.78
2022-11-02T15:32:23.259Z,17.80
2022-11-02T15:34:53.445Z,17.72
2022-11-02T15:37:22.231Z,17.88
2022-11-02T15:39:58.894Z,17.84
2022-11-02T15:42:34.642Z,17.88
2022-11-02T15:45:20.341Z,17.86
2022-11-02T15:48:01.803Z,17.75
2022-11-02T15:53:45.534Z,17.83
2022-11-02T15:56:27.031Z,17.70
2022-11-02T15:59:32.940Z,17.55
2022-11-02T16:02:35.413Z,17.67
2022-11-02T16:05:08.249Z,17.63
2022-11-02T16:08:19.342Z,17.74
2022-11-02T16:10:48.136Z,17.70
2022-11-02T16:13:20.466Z,17.55
2022-11-02T16:16:35.538Z,17.72
2022-11-02T16:18:56.984Z,17.74
2022-11-02T16:21:25.053Z,17.72
2022-11-02T16:23:59.498Z,17.67
2022-11-02T16:26:30.793Z,17.77
2022-11-02T16:28:59.702Z,17.86
2022-11-02T16:31:32.133Z,17.74
2022-11-02T16:34:00.991Z,17.79
2022-11-02T16:36:31.088Z,17.77
2022-11-02T16:39:01.625Z,17.69
2022-11-02T16:41:30.458Z,17.74
2022-11-02T16:44:01.600Z,17.72
2022-11-02T16:46:30.763Z,17.63
2022-11-02T16:49:13.773Z,17.49
2022-11-02T16:51:44.242Z,17.46
2022-11-02T16:54:25.982Z,17.32
2022-11-02T16:56:54.061Z,17.08
2022-11-02T16:59:26.099Z,17.00
2022-11-02T17:01:58.899Z,16.98
2022-11-02T17:04:28.005Z,16.92
2022-11-02T17:07:03.990Z,16.96
2022-11-02T17:09:38.142Z,16.84
2022-11-02T17:12:06.907Z,17.02
2022-11-02T17:14:34.997Z,16.95
2022-11-02T17:17:05.448Z,16.97
2022-11-02T17:19:47.780Z,16.88
2022-11-02T17:22:24.908Z,17.08
2022-11-02T17:25:16.185Z,17.05
2022-11-02T17:27:46.909Z,16.95
2022-11-02T17:30:48.891Z,16.87
2022-11-02T17:33:27.102Z,16.75
2022-11-02T17:35:56.028Z,16.71
2022-11-02T17:38:27.274Z,16.48
2022-11-02T17:40:59.823Z,16.43
2022-11-02T17:43:30.287Z,16.33
2022-11-02T17:45:59.924Z,16.51
2022-11-02T17:48:29.119Z,16.40
2022-11-02T17:50:59.680Z,16.49
2022-11-02T17:53:27.988Z,16.46
2022-11-02T17:56:07.701Z,16.40
2022-11-02T17:58:42.718Z,16.54
2022-11-02T18:01:39.458Z,16.61
2022-11-02T18:04:07.858Z,16.71
2022-11-02T18:06:56.962Z,16.57
2022-11-02T18:09:48.075Z,16.63
2022-11-02T18:12:36.020Z,16.68
2022-11-02T18:47:58.731Z,16.77
2022-11-02T19:02:55.681Z,16.78
2022-11-02T19:06:16.438Z,16.96
2022-11-02T19:09:02.207Z,16.92
2022-11-02T19:22:30.036Z,16.93
2022-11-02T19:33:40.267Z,16.92
2022-11-02T19:44:07.723Z,16.95
2022-11-02T20:59:26.936Z,17.25
2022-11-02T21:06:16.233Z,17.18
2022-11-02T21:15:29.920Z,16.93
2022-11-02T21:18:01.428Z,17.13
2022-11-02T21:23:29.857Z,17.03
2022-11-02T21:26:29.170Z,17.12
2022-11-02T21:28:58.417Z,17.14
2022-11-02T21:31:41.916Z,17.09
2022-11-02T21:34:10.774Z,17.03
2022-11-02T21:40:05.140Z,16.87
2022-11-02T21:42:43.844Z,16.86
2022-11-02T21:48:17.245Z,16.85
2022-11-02T21:51:07.557Z,16.64
2022-11-02T21:53:40.197Z,16.79
2022-11-02T21:56:15.012Z,16.81
2022-11-02T21:58:46.095Z,16.82
2022-11-02T22:01:33.953Z,16.85
2022-11-02T22:04:02.050Z,16.89
2022-11-02T22:06:31.607Z,16.86
2022-11-02T22:08:59.979Z,16.85
2022-11-02T22:11:29.464Z,16.87
2022-11-02T22:13:58.596Z,16.88
2022-11-02T22:16:33.595Z,16.81
2022-11-02T22:19:21.720Z,16.74
2022-11-02T22:21:55.902Z,16.88
2022-11-02T22:24:30.983Z,16.90
2022-11-02T22:27:09.748Z,16.76
2022-11-02T22:29:43.237Z,16.89
2022-11-02T22:32:37.748Z,16.85
2022-11-02T22:35:26.483Z,16.67
2022-11-02T22:38:16.955Z,16.88
2022-11-02T22:40:48.572Z,16.73
2022-11-02T22:43:18.636Z,16.89
2022-11-02T22:45:49.156Z,16.89
2022-11-02T22:48:29.939Z,16.75
2022-11-02T22:51:01.706Z,16.91
2022-11-02T22:53:30.444Z,16.72
2022-11-02T22:56:02.007Z,16.82
2022-11-02T22:58:34.832Z,16.82
2022-11-02T23:01:08.350Z,16.91
2022-11-02T23:09:05.041Z,16.66
2022-11-02T23:11:32.755Z,16.82
2022-11-02T23:14:02.796Z,16.78
2022-11-02T23:16:31.638Z,16.77
2022-11-02T23:19:22.072Z,16.74
2022-11-02T23:22:09.295Z,16.75
2022-11-02T23:24:53.703Z,16.78
2022-11-02T23:27:22.483Z,16.79
2022-11-02T23:30:09.219Z,16.81
2022-11-02T23:32:37.145Z,16.77
2022-11-02T23:35:28.625Z,16.69
2022-11-02T23:38:04.701Z,16.82
2022-11-02T23:40:36.162Z,16.76
2022-11-02T23:43:14.028Z,16.72
2022-11-02T23:45:43.601Z,16.88
2022-11-02T23:48:12.275Z,16.84
2022-11-02T23:51:01.895Z,16.85
2022-11-02T23:53:49.258Z,16.69
2022-11-02T23:56:37.792Z,16.76
2022-11-02T23:59:13.214Z,16.53
